createdAt,value
2019-05-26T00:01:43.602Z,12.19
2019-05-26T00:04:12.473Z,12.17
2019-05-26T00:06:41.774Z,12.14
2019-05-26T00:09:11.066Z,12.13
2019-05-26T00:11:39.943Z,12.12
2019-05-26T00:14:08.860Z,12.09
2019-05-26T00:16:37.736Z,12.06
2019-05-26T00:19:07.259Z,12.03
2019-05-26T00:21:36.104Z,12.00
2019-05-26T00:24:04.995Z,11.97
2019-05-26T00:26:33.805Z,11.96
2019-05-26T00:29:02.915Z,11.94
2019-05-26T00:31:32.098Z,11.91
2019-05-26T00:34:01.214Z,11.86
2019-05-26T00:36:30.531Z,11.83
2019-05-26T00:38:59.385Z,11.82
2019-05-26T00:41:28.339Z,11.79
2019-05-26T00:43:57.787Z,11.77
2019-05-26T00:46:26.711Z,11.75
2019-05-26T00:48:55.646Z,11.73
2019-05-26T00:51:24.873Z,11.72
2019-05-26T00:53:54.172Z,11.71
2019-05-26T00:56:23.020Z,11.70
2019-05-26T00:58:52.843Z,11.69
2019-05-26T01:01:21.653Z,11.68
2019-05-26T01:03:50.787Z,11.65
2019-05-26T01:06:19.756Z,11.64
2019-05-26T01:08:48.636Z,11.62
2019-05-26T01:11:17.566Z,11.60
2019-05-26T01:13:46.424Z,11.57
2019-05-26T01:16:15.315Z,11.53
2019-05-26T01:18:44.624Z,11.53
2019-05-26T01:21:13.761Z,11.53
2019-05-26T01:23:43.217Z,11.52
2019-05-26T01:26:12.088Z,11.53
2019-05-26T01:28:40.999Z,11.53
2019-05-26T01:31:10.167Z,11.56
2019-05-26T01:33:39.298Z,11.59
2019-05-26T01:36:08.702Z,11.61
2019-05-26T01:38:38.174Z,11.60
2019-05-26T01:41:07.413Z,11.59
2019-05-26T01:43:36.500Z,11.55
2019-05-26T01:46:05.800Z,11.52
2019-05-26T01:48:34.887Z,11.50
2019-05-26T01:51:03.836Z,11.46
2019-05-26T01:53:32.742Z,11.38
2019-05-26T01:56:01.887Z,11.36
2019-05-26T01:58:30.968Z,11.33
2019-05-26T02:01:00.175Z,11.27
2019-05-26T02:03:29.029Z,11.25
2019-05-26T02:05:58.293Z,11.24
2019-05-26T02:08:38.877Z,11.22
2019-05-26T02:10:58.221Z,11.20
2019-05-26T02:13:27.377Z,11.16
2019-05-26T02:15:56.586Z,11.13
2019-05-26T02:18:25.526Z,11.10
2019-05-26T02:20:54.350Z,11.07
2019-05-26T02:23:23.341Z,11.04
2019-05-26T02:25:52.298Z,11.04
2019-05-26T02:28:21.238Z,11.03
2019-05-26T02:30:50.174Z,11.03
2019-05-26T02:33:19.134Z,11.04
2019-05-26T02:35:48.438Z,11.04
2019-05-26T02:38:17.577Z,11.05
2019-05-26T02:40:46.527Z,11.03
2019-05-26T02:43:15.459Z,11.02
2019-05-26T02:45:44.710Z,11.02
2019-05-26T02:48:14.717Z,11.03
2019-05-26T02:50:43.976Z,11.03
2019-05-26T02:53:13.101Z,11.03
2019-05-26T02:55:42.311Z,11.01
2019-05-26T02:58:11.223Z,10.99
2019-05-26T03:00:44.352Z,11.00
2019-05-26T03:03:14.559Z,11.00
2019-05-26T03:05:45.373Z,10.98
2019-05-26T03:08:14.965Z,11.00
2019-05-26T03:10:44.218Z,11.01
2019-05-26T03:13:17.323Z,11.01
2019-05-26T03:15:47.376Z,11.02
2019-05-26T03:18:16.808Z,11.01
2019-05-26T03:20:45.878Z,11.00
2019-05-26T03:23:16.649Z,10.99
2019-05-26T03:25:45.788Z,11.02
2019-05-26T03:28:14.771Z,11.02
2019-05-26T03:30:44.007Z,11.04
2019-05-26T03:33:12.908Z,11.07
2019-05-26T03:35:42.097Z,11.10
2019-05-26T03:38:11.374Z,11.14
2019-05-26T03:40:40.337Z,11.16
2019-05-26T03:43:09.940Z,11.18
2019-05-26T03:46:16.297Z,11.24
2019-05-26T03:48:45.254Z,11.31
2019-05-26T03:51:14.960Z,11.43
2019-05-26T03:53:44.359Z,11.53
2019-05-26T03:56:13.364Z,11.61
2019-05-26T03:58:42.217Z,11.71
2019-05-26T04:01:11.427Z,11.81
2019-05-26T04:03:40.313Z,11.90
2019-05-26T04:06:09.251Z,12.00
2019-05-26T04:08:38.381Z,12.12
2019-05-26T04:11:07.261Z,12.24
2019-05-26T04:13:36.135Z,12.38
2019-05-26T04:16:05.227Z,12.49
2019-05-26T04:18:34.148Z,12.60
2019-05-26T04:21:03.108Z,12.68
2019-05-26T04:23:32.329Z,12.81
2019-05-26T04:26:01.567Z,13.05
2019-05-26T04:28:30.483Z,13.39
2019-05-26T04:30:59.274Z,13.64
2019-05-26T04:33:28.134Z,13.80
2019-05-26T04:35:57.341Z,13.82
2019-05-26T04:38:26.181Z,13.82
2019-05-26T04:40:55.169Z,13.79
2019-05-26T04:43:24.077Z,13.77
2019-05-26T04:45:53.020Z,13.80
2019-05-26T04:48:22.755Z,13.87
2019-05-26T04:50:51.672Z,13.90
2019-05-26T04:53:20.772Z,13.94
2019-05-26T04:55:49.840Z,13.96
2019-05-26T04:58:18.697Z,13.98
2019-05-26T05:00:47.699Z,14.01
2019-05-26T05:03:16.471Z,14.10
2019-05-26T05:05:45.385Z,14.20
2019-05-26T05:08:14.344Z,14.30
2019-05-26T05:10:43.539Z,14.37
2019-05-26T05:13:12.699Z,14.48
2019-05-26T05:15:41.658Z,14.61
2019-05-26T05:18:10.862Z,14.79
2019-05-26T05:20:40.581Z,14.93
2019-05-26T05:23:09.855Z,15.07
2019-05-26T05:25:39.177Z,15.19
2019-05-26T05:28:08.017Z,15.35
2019-05-26T05:30:37.229Z,15.62
2019-05-26T05:33:06.164Z,15.88
2019-05-26T05:35:35.033Z,16.10
2019-05-26T05:38:03.961Z,16.27
2019-05-26T05:40:33.085Z,16.55
2019-05-26T05:43:02.847Z,16.71
2019-05-26T05:45:31.922Z,16.74
2019-05-26T05:48:00.720Z,16.85
2019-05-26T05:50:29.600Z,16.98
2019-05-26T05:52:58.566Z,17.06
2019-05-26T05:55:27.785Z,16.94
2019-05-26T05:57:56.546Z,16.76
2019-05-26T06:00:25.579Z,16.67
2019-05-26T06:02:54.763Z,16.64
2019-05-26T06:05:23.601Z,16.61
2019-05-26T06:07:52.742Z,16.59
2019-05-26T06:10:22.467Z,16.59
2019-05-26T06:12:51.426Z,16.59
2019-05-26T06:15:20.300Z,16.60
2019-05-26T06:17:49.238Z,16.63
2019-05-26T06:20:18.733Z,16.68
2019-05-26T06:22:47.613Z,16.65
2019-05-26T06:25:17.194Z,16.65
2019-05-26T06:27:46.189Z,16.69
2019-05-26T06:30:15.876Z,16.79
2019-05-26T06:32:44.716Z,16.82
2019-05-26T06:35:14.119Z,16.85
2019-05-26T06:37:43.065Z,16.91
2019-05-26T06:40:12.416Z,16.97
2019-05-26T06:42:42.122Z,16.99
2019-05-26T06:45:11.377Z,17.02
2019-05-26T06:47:40.387Z,16.99
2019-05-26T06:50:10.448Z,17.05
2019-05-26T06:52:39.655Z,17.08
2019-05-26T06:55:08.841Z,17.12
2019-05-26T06:57:37.710Z,17.22
2019-05-26T07:00:07.474Z,17.39
2019-05-26T07:02:36.630Z,17.59
2019-05-26T07:05:05.999Z,17.82
2019-05-26T07:07:35.264Z,17.97
2019-05-26T07:10:04.681Z,18.10
2019-05-26T07:12:33.564Z,18.23
2019-05-26T07:15:02.846Z,18.40
2019-05-26T07:17:31.714Z,18.57
2019-05-26T07:20:00.915Z,18.54
2019-05-26T07:22:30.448Z,18.70
2019-05-26T07:24:59.417Z,18.71
2019-05-26T07:27:28.330Z,18.73
2019-05-26T07:29:57.226Z,18.55
2019-05-26T07:32:26.389Z,18.40
2019-05-26T07:34:55.600Z,18.35
2019-05-26T07:37:24.460Z,18.34
2019-05-26T07:39:53.648Z,18.27
2019-05-26T07:42:22.866Z,18.29
2019-05-26T07:44:51.977Z,18.28
2019-05-26T07:47:21.219Z,18.27
2019-05-26T07:49:50.323Z,18.41
2019-05-26T07:52:19.191Z,18.47
2019-05-26T07:54:48.070Z,18.53
2019-05-26T07:57:16.946Z,18.45
2019-05-26T07:59:46.207Z,18.46
2019-05-26T08:02:15.242Z,18.51
2019-05-26T08:04:44.032Z,18.54
2019-05-26T08:07:13.108Z,18.57
2019-05-26T08:09:42.042Z,18.63
2019-05-26T08:12:24.924Z,18.59
2019-05-26T08:14:41.826Z,18.64
2019-05-26T08:17:11.086Z,18.71
2019-05-26T08:19:40.345Z,18.88
2019-05-26T08:22:09.274Z,19.25
2019-05-26T08:24:38.562Z,19.49
2019-05-26T08:27:07.487Z,20.02
2019-05-26T08:29:36.443Z,20.50
2019-05-26T08:32:05.883Z,20.79
2019-05-26T08:34:34.818Z,20.81
2019-05-26T08:37:04.084Z,21.04
2019-05-26T08:39:33.437Z,21.08
2019-05-26T08:42:02.341Z,21.13
2019-05-26T08:44:31.592Z,21.27
2019-05-26T08:47:00.491Z,21.25
2019-05-26T08:49:29.413Z,21.09
2019-05-26T08:51:58.541Z,21.09
2019-05-26T08:54:27.401Z,20.97
2019-05-26T08:56:56.563Z,20.95
2019-05-26T08:59:25.408Z,20.85
2019-05-26T09:01:54.355Z,20.78
2019-05-26T09:04:23.546Z,20.65
2019-05-26T09:06:52.720Z,20.68
2019-05-26T09:09:21.581Z,20.56
2019-05-26T09:11:50.485Z,20.51
2019-05-26T09:14:19.341Z,20.53
2019-05-26T09:16:48.313Z,20.49
2019-05-26T09:19:17.453Z,20.41
2019-05-26T09:21:46.710Z,20.33
2019-05-26T09:24:15.609Z,20.16
2019-05-26T09:26:45.087Z,19.96
2019-05-26T09:29:13.943Z,19.77
2019-05-26T09:31:42.964Z,19.67
2019-05-26T09:34:12.172Z,19.59
2019-05-26T09:36:43.951Z,19.44
2019-05-26T09:39:12.898Z,19.43
2019-05-26T09:41:41.941Z,19.39
2019-05-26T09:44:11.108Z,19.41
2019-05-26T09:46:40.059Z,19.51
2019-05-26T09:49:09.119Z,19.69
2019-05-26T09:51:38.405Z,19.77
2019-05-26T09:54:07.323Z,19.79
2019-05-26T09:56:36.185Z,19.87
2019-05-26T09:59:05.117Z,19.98
2019-05-26T10:01:34.105Z,20.08
2019-05-26T10:04:02.969Z,20.22
2019-05-26T10:06:31.856Z,20.42
2019-05-26T10:09:00.799Z,20.49
2019-05-26T10:11:30.049Z,20.73
2019-05-26T10:13:58.939Z,20.96
2019-05-26T10:16:27.953Z,21.18
2019-05-26T10:18:57.230Z,21.35
2019-05-26T10:21:26.412Z,21.42
2019-05-26T10:23:55.317Z,21.44
2019-05-26T10:26:24.257Z,21.44
2019-05-26T10:28:53.707Z,21.33
2019-05-26T10:31:22.585Z,21.38
2019-05-26T10:33:51.838Z,21.43
2019-05-26T10:36:20.933Z,21.52
2019-05-26T10:38:49.715Z,21.65
2019-05-26T10:41:18.572Z,21.64
2019-05-26T10:43:47.993Z,21.50
2019-05-26T10:46:17.547Z,21.47
2019-05-26T10:48:46.417Z,21.43
2019-05-26T10:51:15.260Z,21.42
2019-05-26T10:53:44.570Z,21.50
2019-05-26T10:56:13.751Z,21.55
2019-05-26T10:58:42.621Z,21.68
2019-05-26T11:01:11.556Z,21.71
2019-05-26T11:03:40.455Z,21.58
2019-05-26T11:06:09.635Z,21.54
2019-05-26T11:08:38.551Z,21.55
2019-05-26T11:11:07.481Z,21.71
2019-05-26T11:13:36.606Z,21.84
2019-05-26T11:16:05.663Z,21.96
2019-05-26T11:18:34.898Z,22.06
2019-05-26T11:21:04.002Z,22.26
2019-05-26T11:23:32.979Z,22.31
2019-05-26T11:26:01.830Z,22.45
2019-05-26T11:28:30.814Z,22.42
2019-05-26T11:30:59.732Z,22.52
2019-05-26T11:33:29.103Z,22.59
2019-05-26T11:35:58.185Z,22.59
2019-05-26T11:38:27.345Z,22.75
2019-05-26T11:40:57.117Z,22.94
2019-05-26T11:43:26.265Z,22.96
2019-05-26T11:45:55.224Z,23.10
2019-05-26T11:48:39.709Z,23.17
2019-05-26T11:51:09.011Z,23.15
2019-05-26T11:53:37.799Z,22.98
2019-05-26T11:56:06.622Z,22.91
2019-05-26T11:58:35.515Z,22.97
2019-05-26T12:01:04.427Z,23.17
2019-05-26T12:03:33.288Z,23.32
2019-05-26T12:06:02.224Z,23.34
2019-05-26T12:08:31.450Z,23.40
2019-05-26T12:11:00.315Z,23.40
2019-05-26T12:13:29.514Z,23.46
2019-05-26T12:15:58.450Z,23.63
2019-05-26T12:18:27.305Z,23.56
2019-05-26T12:20:56.211Z,23.60
2019-05-26T12:23:25.159Z,23.63
2019-05-26T12:25:54.270Z,23.53
2019-05-26T12:28:23.491Z,23.50
2019-05-26T12:30:52.437Z,23.46
2019-05-26T12:33:21.307Z,23.34
2019-05-26T12:35:50.457Z,23.34
2019-05-26T12:38:19.327Z,23.26
2019-05-26T12:40:48.227Z,23.23
2019-05-26T12:43:17.262Z,23.24
2019-05-26T12:45:46.476Z,23.21
2019-05-26T12:48:15.415Z,23.28
2019-05-26T12:50:44.540Z,23.38
2019-05-26T12:53:13.478Z,23.52
2019-05-26T12:55:42.479Z,23.57
2019-05-26T12:58:11.597Z,23.49
2019-05-26T13:00:48.711Z,23.46
2019-05-26T13:03:11.451Z,23.44
2019-05-26T13:05:40.235Z,23.29
2019-05-26T13:08:09.539Z,23.15
2019-05-26T13:10:38.407Z,23.09
2019-05-26T13:13:07.341Z,23.17
2019-05-26T13:15:36.203Z,23.18
2019-05-26T13:18:05.145Z,23.21
2019-05-26T13:20:33.987Z,23.31
2019-05-26T13:23:03.200Z,23.44
2019-05-26T13:25:32.397Z,23.36
2019-05-26T13:28:01.328Z,23.30
2019-05-26T13:30:30.696Z,23.28
2019-05-26T13:33:00.248Z,23.25
2019-05-26T13:35:29.119Z,23.24
2019-05-26T13:37:58.028Z,23.20
2019-05-26T13:40:29.543Z,23.24
2019-05-26T13:42:58.571Z,23.31
2019-05-26T13:45:27.733Z,23.39
2019-05-26T13:47:57.005Z,23.43
2019-05-26T13:50:26.520Z,23.48
2019-05-26T13:52:55.808Z,23.43
2019-05-26T13:55:24.757Z,23.29
2019-05-26T13:57:53.617Z,23.22
2019-05-26T14:00:24.101Z,23.13
2019-05-26T14:02:53.332Z,23.08
2019-05-26T14:05:22.297Z,23.00
2019-05-26T14:07:51.440Z,23.00
2019-05-26T14:10:31.638Z,23.09
2019-05-26T14:13:00.869Z,23.13
2019-05-26T14:15:37.991Z,23.19
2019-05-26T14:18:01.007Z,23.22
2019-05-26T14:20:39.757Z,23.25
2019-05-26T14:23:09.715Z,23.20
2019-05-26T14:25:39.251Z,23.11
2019-05-26T14:28:08.585Z,22.92
2019-05-26T14:30:37.533Z,22.85
2019-05-26T14:33:06.549Z,22.84
2019-05-26T14:35:36.266Z,22.89
2019-05-26T14:38:05.236Z,22.98
2019-05-26T14:40:34.476Z,22.97
2019-05-26T14:43:03.738Z,22.91
2019-05-26T14:45:32.688Z,22.91
2019-05-26T14:48:01.673Z,22.71
2019-05-26T14:50:30.932Z,22.65
2019-05-26T14:52:59.780Z,22.59
2019-05-26T14:55:28.745Z,22.50
2019-05-26T14:58:12.348Z,22.38
2019-05-26T15:00:28.621Z,22.27
2019-05-26T15:02:57.771Z,22.21
2019-05-26T15:05:26.642Z,22.15
2019-05-26T15:07:55.577Z,22.09
2019-05-26T15:10:24.773Z,22.11
2019-05-26T15:12:53.708Z,22.15
2019-05-26T15:15:22.812Z,22.14
2019-05-26T15:17:51.683Z,22.06
2019-05-26T15:20:21.301Z,22.02
2019-05-26T15:22:51.107Z,21.96
2019-05-26T15:25:20.513Z,21.97
2019-05-26T15:27:49.787Z,22.02
2019-05-26T15:30:19.047Z,22.09
2019-05-26T15:32:48.868Z,22.18
2019-05-26T15:35:17.817Z,22.24
2019-05-26T15:37:47.013Z,22.24
2019-05-26T15:40:15.979Z,22.29
2019-05-26T15:42:45.543Z,22.32
2019-05-26T15:45:15.688Z,22.27
2019-05-26T15:47:44.574Z,22.19
2019-05-26T15:53:00.228Z,22.16
2019-05-26T15:55:29.447Z,22.03
2019-05-26T15:57:58.624Z,21.85
2019-05-26T16:00:27.526Z,21.81
2019-05-26T16:02:56.351Z,21.77
2019-05-26T16:05:25.268Z,21.81
2019-05-26T16:07:54.116Z,21.85
2019-05-26T16:10:22.958Z,21.83
2019-05-26T16:12:51.808Z,21.79
2019-05-26T16:15:20.773Z,21.76
2019-05-26T16:17:49.722Z,21.74
2019-05-26T16:20:18.811Z,21.69
2019-05-26T16:22:48.036Z,21.65
2019-05-26T16:25:16.972Z,21.66
2019-05-26T16:27:45.846Z,21.54
2019-05-26T16:30:15.328Z,21.56
2019-05-26T16:32:44.146Z,21.56
2019-05-26T16:35:13.098Z,21.58
2019-05-26T16:37:41.963Z,21.52
2019-05-26T16:40:11.069Z,21.47
2019-05-26T16:42:40.282Z,21.41
2019-05-26T16:45:09.364Z,21.31
2019-05-26T16:47:38.245Z,21.28
2019-05-26T16:50:07.290Z,21.26
2019-05-26T16:52:36.265Z,21.20
2019-05-26T16:55:06.019Z,21.27
2019-05-26T16:57:35.176Z,21.35
2019-05-26T17:00:04.406Z,21.43
2019-05-26T17:02:33.257Z,21.49
2019-05-26T17:05:02.451Z,21.36
2019-05-26T17:07:31.321Z,21.39
2019-05-26T17:10:00.540Z,21.40
2019-05-26T17:12:29.577Z,21.23
2019-05-26T17:14:58.429Z,21.11
2019-05-26T17:17:27.311Z,21.00
2019-05-26T17:19:56.258Z,20.91
2019-05-26T17:22:25.227Z,20.87
2019-05-26T17:24:54.579Z,20.82
2019-05-26T17:27:24.117Z,20.85
2019-05-26T17:29:53.058Z,20.91
2019-05-26T17:32:22.178Z,20.97
2019-05-26T17:34:51.029Z,21.02
2019-05-26T17:37:19.986Z,21.02
2019-05-26T17:39:48.852Z,21.06
2019-05-26T17:42:18.135Z,21.07
2019-05-26T17:44:47.440Z,21.07
2019-05-26T17:47:29.236Z,21.03
2019-05-26T17:49:47.048Z,21.06
2019-05-26T17:52:15.796Z,21.04
2019-05-26T17:54:44.575Z,21.05
2019-05-26T17:57:13.495Z,21.12
2019-05-26T17:59:42.350Z,21.07
2019-05-26T18:02:11.300Z,21.03
2019-05-26T18:04:40.158Z,21.02
2019-05-26T18:07:09.336Z,21.02
2019-05-26T18:09:44.257Z,21.04
2019-05-26T18:12:09.595Z,21.07
2019-05-26T18:14:38.482Z,21.00
2019-05-26T18:17:08.253Z,20.96
2019-05-26T18:19:37.248Z,20.92
2019-05-26T18:22:06.303Z,20.90
2019-05-26T18:24:35.197Z,20.86
2019-05-26T18:27:04.054Z,20.81
2019-05-26T18:29:33.032Z,20.73
2019-05-26T18:32:02.430Z,20.71
2019-05-26T18:34:31.868Z,20.68
2019-05-26T18:37:01.050Z,20.65
2019-05-26T18:39:29.929Z,20.64
2019-05-26T18:41:58.785Z,20.57
2019-05-26T18:44:27.638Z,20.48
2019-05-26T18:46:56.499Z,20.43
2019-05-26T18:49:25.435Z,20.38
2019-05-26T18:51:54.307Z,20.34
2019-05-26T18:54:23.182Z,20.28
2019-05-26T18:56:52.128Z,20.24
2019-05-26T18:59:21.249Z,20.20
2019-05-26T19:01:50.470Z,20.16
2019-05-26T19:04:19.416Z,20.10
2019-05-26T19:06:48.314Z,20.06
2019-05-26T19:09:17.308Z,20.00
2019-05-26T19:11:46.202Z,19.92
2019-05-26T19:14:15.457Z,19.85
2019-05-26T19:16:44.324Z,19.80
2019-05-26T19:19:13.216Z,19.76
2019-05-26T19:21:42.180Z,19.69
2019-05-26T19:24:11.286Z,19.63
2019-05-26T19:26:40.496Z,19.56
2019-05-26T19:29:09.431Z,19.47
2019-05-26T19:31:38.321Z,19.33
2019-05-26T19:34:07.292Z,19.33
2019-05-26T19:36:36.177Z,19.32
2019-05-26T19:39:08.013Z,19.28
2019-05-26T19:41:39.281Z,19.24
2019-05-26T19:44:07.858Z,19.20
2019-05-26T19:46:37.019Z,19.10
2019-05-26T19:49:05.982Z,19.05
2019-05-26T19:51:35.430Z,19.03
2019-05-26T19:54:04.492Z,19.02
2019-05-26T19:56:33.531Z,19.02
2019-05-26T19:59:02.474Z,19.02
2019-05-26T20:01:32.128Z,18.99
2019-05-26T20:04:01.270Z,18.95
2019-05-26T20:06:30.211Z,18.91
2019-05-26T20:08:59.012Z,18.91
2019-05-26T20:11:28.115Z,18.90
2019-05-26T20:13:57.219Z,18.88
2019-05-26T20:16:26.175Z,18.83
2019-05-26T20:18:55.115Z,18.78
2019-05-26T20:21:23.978Z,18.75
2019-05-26T20:23:52.819Z,18.72
2019-05-26T20:26:21.601Z,18.68
2019-05-26T20:28:50.641Z,18.64
2019-05-26T20:31:19.789Z,18.59
2019-05-26T20:33:48.848Z,18.55
2019-05-26T20:36:17.802Z,18.50
2019-05-26T20:38:47.084Z,18.44
2019-05-26T20:41:16.067Z,18.39
2019-05-26T20:43:44.913Z,18.38
2019-05-26T20:46:14.471Z,18.33
2019-05-26T20:48:43.771Z,18.30
2019-05-26T20:51:12.922Z,18.28
2019-05-26T20:53:41.871Z,18.24
2019-05-26T20:56:10.829Z,18.21
2019-05-26T20:58:39.683Z,18.18
2019-05-26T21:01:08.576Z,18.20
2019-05-26T21:03:37.810Z,18.18
2019-05-26T21:06:06.676Z,18.20
2019-05-26T21:08:35.587Z,18.21
2019-05-26T21:11:04.429Z,18.21
2019-05-26T21:13:33.291Z,18.21
2019-05-26T21:16:02.436Z,18.19
2019-05-26T21:18:31.406Z,18.23
2019-05-26T21:21:15.653Z,18.22
2019-05-26T21:23:44.618Z,18.21
2019-05-26T21:26:13.858Z,18.20
2019-05-26T21:28:43.168Z,18.19
2019-05-26T21:31:12.162Z,18.17
2019-05-26T21:33:41.378Z,18.15
2019-05-26T21:36:10.373Z,18.14
2019-05-26T21:38:39.250Z,18.10
2019-05-26T21:41:09.057Z,18.08
2019-05-26T21:43:38.485Z,18.04
2019-05-26T21:46:07.338Z,18.03
2019-05-26T21:48:36.220Z,18.03
2019-05-26T21:51:05.484Z,18.00
2019-05-26T21:53:34.407Z,17.99
2019-05-26T21:56:03.261Z,17.97
2019-05-26T21:58:32.254Z,17.93
2019-05-26T22:01:01.206Z,17.93
2019-05-26T22:03:30.274Z,17.90
2019-05-26T22:05:59.162Z,17.89
2019-05-26T22:08:28.014Z,17.87
2019-05-26T22:10:57.299Z,17.84
2019-05-26T22:13:26.059Z,17.82
2019-05-26T22:15:55.225Z,17.83
2019-05-26T22:18:24.439Z,17.82
2019-05-26T22:20:53.258Z,17.85
2019-05-26T22:23:22.139Z,17.87
2019-05-26T22:25:51.133Z,17.87
2019-05-26T22:28:20.055Z,17.87
2019-05-26T22:30:49.538Z,17.89
2019-05-26T22:33:18.309Z,17.86
2019-05-26T22:35:48.130Z,17.84
2019-05-26T22:38:17.001Z,17.83
2019-05-26T22:40:45.885Z,17.81
2019-05-26T22:43:14.723Z,17.79
2019-05-26T22:45:43.913Z,17.77
2019-05-26T22:48:12.746Z,17.75
2019-05-26T22:50:41.575Z,17.73
2019-05-26T22:53:10.699Z,17.71
2019-05-26T22:55:40.179Z,17.69
2019-05-26T22:58:09.051Z,17.66
2019-05-26T23:00:38.124Z,17.66
2019-05-26T23:03:07.138Z,17.64
2019-05-26T23:05:36.069Z,17.62
2019-05-26T23:08:05.248Z,17.63
2019-05-26T23:10:34.126Z,17.62
2019-05-26T23:13:03.828Z,17.60
2019-05-26T23:15:32.706Z,17.59
2019-05-26T23:18:01.627Z,17.55
2019-05-26T23:20:30.513Z,17.53
2019-05-26T23:22:59.703Z,17.49
2019-05-26T23:25:28.558Z,17.44
2019-05-26T23:27:57.734Z,17.38
2019-05-26T23:30:26.709Z,17.35
2019-05-26T23:32:55.535Z,17.36
2019-05-26T23:35:24.565Z,17.36
2019-05-26T23:37:53.424Z,17.35
2019-05-26T23:40:22.678Z,17.34
2019-05-26T23:42:51.744Z,17.32
2019-05-26T23:45:20.663Z,17.29
2019-05-26T23:47:49.802Z,17.29
2019-05-26T23:50:19.070Z,17.26
2019-05-26T23:52:48.559Z,17.21
2019-05-26T23:55:17.507Z,17.19
2019-05-26T23:57:46.253Z,17.18
